createdAt,value
2017-08-27T00:00:51.634Z,92.4
2017-08-27T00:01:52.456Z,97.0
2017-08-27T00:02:53.195Z,91.5
2017-08-27T00:03:53.932Z,95.8
2017-08-27T00:04:54.667Z,95.7
2017-08-27T00:05:55.346Z,88.3
2017-08-27T00:06:56.091Z,91.8
2017-08-27T00:07:56.831Z,86.2
2017-08-27T00:08:57.574Z,94.4
2017-08-27T00:09:58.315Z,149.8
2017-08-27T00:10:59.306Z,126.0
2017-08-27T00:12:00.047Z,103.8
2017-08-27T00:13:00.791Z,101.9
2017-08-27T00:14:01.538Z,101.7
2017-08-27T00:15:02.216Z,102.7
2017-08-27T00:16:03.350Z,103.9
2017-08-27T00:17:04.086Z,102.3
2017-08-27T00:18:04.817Z,102.3
2017-08-27T00:19:05.617Z,97.5
2017-08-27T00:20:06.424Z,107.0
2017-08-27T00:21:07.165Z,103.0
2017-08-27T00:22:07.901Z,90.7
2017-08-27T00:23:08.637Z,95.1
2017-08-27T00:24:09.378Z,90.3
2017-08-27T00:25:10.179Z,103.2
2017-08-27T00:26:11.304Z,91.6
2017-08-27T00:27:12.045Z,90.2
2017-08-27T00:28:12.790Z,86.6
2017-08-27T00:29:13.610Z,91.9
2017-08-27T00:30:14.334Z,75.6
2017-08-27T00:31:15.272Z,79.9
2017-08-27T00:32:16.004Z,84.7
2017-08-27T00:33:16.752Z,84.6
2017-08-27T00:34:17.481Z,82.5
2017-08-27T00:35:18.283Z,87.8
2017-08-27T00:36:19.331Z,83.7
2017-08-27T00:37:20.103Z,81.4
2017-08-27T00:38:20.838Z,87.5
2017-08-27T00:39:21.564Z,89.0
2017-08-27T00:40:22.294Z,87.6
2017-08-27T00:41:23.433Z,85.0
2017-08-27T00:42:24.246Z,82.9
2017-08-27T00:43:25.046Z,83.8
2017-08-27T00:44:25.799Z,87.8
2017-08-27T00:45:26.579Z,79.6
2017-08-27T00:46:27.754Z,102.3
2017-08-27T00:47:28.486Z,90.2
2017-08-27T00:48:29.223Z,91.7
2017-08-27T00:49:29.955Z,91.7
2017-08-27T00:50:30.765Z,85.5
2017-08-27T00:51:31.772Z,83.0
2017-08-27T00:52:32.596Z,84.7
2017-08-27T00:53:33.385Z,98.0
2017-08-27T00:54:34.125Z,99.4
2017-08-27T00:55:34.870Z,97.9
2017-08-27T00:56:36.025Z,108.3
2017-08-27T00:57:36.756Z,101.0
2017-08-27T00:58:37.496Z,109.8
2017-08-27T00:59:38.292Z,114.0
2017-08-27T01:00:39.057Z,112.4
2017-08-27T01:01:40.398Z,109.8
2017-08-27T01:02:41.176Z,107.5
2017-08-27T01:03:41.915Z,110.4
2017-08-27T01:04:42.667Z,117.7
2017-08-27T01:05:43.479Z,116.6
2017-08-27T01:06:44.580Z,112.0
2017-08-27T01:07:45.346Z,124.5
2017-08-27T01:08:46.127Z,126.0
2017-08-27T01:09:46.825Z,130.0
2017-08-27T01:10:47.571Z,119.3
2017-08-27T01:11:48.605Z,133.7
2017-08-27T01:12:49.336Z,134.6
2017-08-27T01:13:50.077Z,136.1
2017-08-27T01:14:50.879Z,137.9
2017-08-27T01:15:51.685Z,144.6
2017-08-27T01:16:52.725Z,137.6
2017-08-27T01:17:53.455Z,135.4
2017-08-27T01:18:54.186Z,142.2
2017-08-27T01:19:54.915Z,139.3
2017-08-27T01:20:55.655Z,148.5
2017-08-27T01:21:56.590Z,136.0
2017-08-27T01:22:57.319Z,136.5
2017-08-27T01:23:58.052Z,133.8
2017-08-27T01:24:58.783Z,124.2
2017-08-27T01:25:59.607Z,139.1
2017-08-27T01:27:00.743Z,125.8
2017-08-27T01:28:01.545Z,120.9
2017-08-27T01:29:02.286Z,122.6
2017-08-27T01:30:03.095Z,129.8
2017-08-27T01:31:03.845Z,128.7
2017-08-27T01:32:04.787Z,126.8
2017-08-27T01:33:05.661Z,114.8
2017-08-27T01:34:06.761Z,120.7
2017-08-27T01:35:07.439Z,121.5
2017-08-27T01:36:08.275Z,116.9
2017-08-27T01:37:09.207Z,116.2
2017-08-27T01:38:09.971Z,122.9
2017-08-27T01:39:10.708Z,117.1
2017-08-27T01:40:11.464Z,126.7
2017-08-27T01:41:12.202Z,134.7
2017-08-27T01:42:13.255Z,127.6
2017-08-27T01:43:13.987Z,130.9
2017-08-27T01:44:14.775Z,143.4
2017-08-27T01:45:15.514Z,125.8
2017-08-27T01:46:16.253Z,133.4
2017-08-27T01:47:17.234Z,147.5
2017-08-27T01:48:17.974Z,139.8
2017-08-27T01:49:18.710Z,138.7
2017-08-27T01:50:19.486Z,140.4
2017-08-27T01:51:20.228Z,140.6
2017-08-27T01:52:21.449Z,133.4
2017-08-27T01:53:22.214Z,143.1
2017-08-27T01:54:22.951Z,137.4
2017-08-27T01:55:23.755Z,135.9
2017-08-27T01:56:24.495Z,135.2
2017-08-27T01:57:25.497Z,160.4
2017-08-27T01:58:26.303Z,149.8
2017-08-27T01:59:27.087Z,156.7
2017-08-27T02:00:27.839Z,153.5
2017-08-27T02:01:28.625Z,151.0
2017-08-27T02:02:29.675Z,161.5
2017-08-27T02:03:30.399Z,150.5
2017-08-27T02:04:31.136Z,145.7
2017-08-27T02:05:31.875Z,148.9
2017-08-27T02:06:32.622Z,149.3
2017-08-27T02:07:33.562Z,155.5
2017-08-27T02:08:34.355Z,159.3
2017-08-27T02:09:35.095Z,168.7
2017-08-27T02:10:35.825Z,159.8
2017-08-27T02:11:36.556Z,169.3
2017-08-27T02:12:37.646Z,161.8
2017-08-27T02:13:38.380Z,181.7
2017-08-27T02:14:39.115Z,184.0
2017-08-27T02:15:39.854Z,181.8
2017-08-27T02:16:40.579Z,177.6
2017-08-27T02:17:41.614Z,169.1
2017-08-27T02:18:42.345Z,187.3
2017-08-27T02:19:43.087Z,180.4
2017-08-27T02:20:43.915Z,196.0
2017-08-27T02:21:44.651Z,188.9
2017-08-27T02:22:45.701Z,192.1
2017-08-27T02:23:46.486Z,187.3
2017-08-27T02:24:47.285Z,206.0
2017-08-27T02:25:48.022Z,205.6
2017-08-27T02:26:48.765Z,217.2
2017-08-27T02:27:49.866Z,219.1
2017-08-27T02:28:50.682Z,215.2
2017-08-27T02:29:51.423Z,229.0
2017-08-27T02:30:52.186Z,221.3
2017-08-27T02:31:52.986Z,211.5
2017-08-27T02:32:54.009Z,240.8
2017-08-27T02:33:54.733Z,232.4
2017-08-27T02:34:55.473Z,229.9
2017-08-27T02:35:56.284Z,250.6
2017-08-27T02:36:57.030Z,234.4
2017-08-27T02:37:58.083Z,242.3
2017-08-27T02:38:58.831Z,240.8
2017-08-27T02:39:59.637Z,238.6
2017-08-27T02:41:00.440Z,253.1
2017-08-27T02:42:01.233Z,254.0
2017-08-27T02:43:01.995Z,238.5
2017-08-27T02:44:03.145Z,252.8
2017-08-27T02:45:03.876Z,251.3
2017-08-27T02:46:04.617Z,258.5
2017-08-27T02:47:05.350Z,255.1
2017-08-27T02:48:06.086Z,251.5
2017-08-27T02:49:07.182Z,258.6
2017-08-27T02:50:07.995Z,275.3
2017-08-27T02:51:08.750Z,250.2
2017-08-27T02:52:09.515Z,253.8
2017-08-27T02:53:10.255Z,250.3
2017-08-27T02:54:10.994Z,254.7
2017-08-27T02:55:11.735Z,274.7
2017-08-27T02:56:12.788Z,269.4
2017-08-27T02:57:13.576Z,320.7
2017-08-27T02:58:14.329Z,281.3
2017-08-27T02:59:15.116Z,295.3
2017-08-27T03:00:15.926Z,298.7
2017-08-27T03:01:17.125Z,293.5
2017-08-27T03:02:17.864Z,290.3
2017-08-27T03:03:18.594Z,302.4
2017-08-27T03:04:19.345Z,313.9
2017-08-27T03:05:20.156Z,280.7
2017-08-27T03:06:21.208Z,284.3
2017-08-27T03:07:22.017Z,279.0
2017-08-27T03:08:22.818Z,271.5
2017-08-27T03:09:23.556Z,303.2
2017-08-27T03:10:24.373Z,292.8
2017-08-27T03:11:25.534Z,264.7
2017-08-27T03:12:26.262Z,316.4
2017-08-27T03:13:27.005Z,298.2
2017-08-27T03:14:27.746Z,295.7
2017-08-27T03:15:28.564Z,326.7
2017-08-27T03:16:29.594Z,321.9
2017-08-27T03:17:30.333Z,295.6
2017-08-27T03:18:31.082Z,319.0
2017-08-27T03:19:31.814Z,328.3
2017-08-27T03:20:32.556Z,330.9
2017-08-27T03:21:33.615Z,299.7
2017-08-27T03:22:34.345Z,327.5
2017-08-27T03:23:35.093Z,321.3
2017-08-27T03:24:35.861Z,309.4
2017-08-27T03:25:36.688Z,316.0
2017-08-27T03:26:37.744Z,334.5
2017-08-27T03:27:38.477Z,316.6
2017-08-27T03:28:39.204Z,324.8
2017-08-27T03:29:39.957Z,302.4
2017-08-27T03:30:40.741Z,290.2
2017-08-27T03:31:41.676Z,297.5
2017-08-27T03:32:42.414Z,297.5
2017-08-27T03:33:43.152Z,296.6
2017-08-27T03:34:43.895Z,278.4
2017-08-27T03:35:44.634Z,282.3
2017-08-27T03:36:45.674Z,266.4
2017-08-27T03:37:46.416Z,268.4
2017-08-27T03:38:47.228Z,242.8
2017-08-27T03:39:48.044Z,261.4
2017-08-27T03:40:48.792Z,239.6
2017-08-27T03:41:49.934Z,236.6
2017-08-27T03:42:50.677Z,276.8
2017-08-27T03:43:51.499Z,261.7
2017-08-27T03:44:52.311Z,258.4
2017-08-27T03:45:53.136Z,267.2
2017-08-27T03:46:54.064Z,274.2
2017-08-27T03:47:54.794Z,270.3
2017-08-27T03:48:55.546Z,262.5
2017-08-27T03:49:56.296Z,270.1
2017-08-27T03:50:57.086Z,255.3
2017-08-27T03:51:58.125Z,264.9
2017-08-27T03:52:58.862Z,259.7
2017-08-27T03:53:59.682Z,260.8
2017-08-27T03:55:00.497Z,258.9
2017-08-27T03:56:01.243Z,219.8
2017-08-27T03:57:02.339Z,222.6
2017-08-27T03:58:03.122Z,228.0
2017-08-27T03:59:03.927Z,242.5
2017-08-27T04:00:04.727Z,260.9
2017-08-27T04:01:05.542Z,279.6
2017-08-27T04:02:06.685Z,288.5
2017-08-27T04:03:07.417Z,268.1
2017-08-27T04:04:08.150Z,285.2
2017-08-27T04:05:08.885Z,274.2
2017-08-27T04:06:09.627Z,273.3
2017-08-27T04:07:10.695Z,295.1
2017-08-27T04:08:11.432Z,281.0
2017-08-27T04:09:12.175Z,263.9
2017-08-27T04:10:12.919Z,269.9
2017-08-27T04:11:13.698Z,276.9
2017-08-27T04:12:14.730Z,270.7
2017-08-27T04:13:15.526Z,275.4
2017-08-27T04:14:16.266Z,275.3
2017-08-27T04:15:17.086Z,276.0
2017-08-27T04:16:17.828Z,292.5
2017-08-27T04:17:18.637Z,303.8
2017-08-27T04:18:19.368Z,283.8
2017-08-27T04:19:20.316Z,300.3
2017-08-27T04:20:21.132Z,322.7
2017-08-27T04:21:21.917Z,300.3
2017-08-27T04:22:22.657Z,318.7
2017-08-27T04:23:23.476Z,303.1
2017-08-27T04:24:24.685Z,269.7
2017-08-27T04:25:25.499Z,286.4
2017-08-27T04:26:26.281Z,279.4
2017-08-27T04:27:27.013Z,288.4
2017-08-27T04:28:27.840Z,301.2
2017-08-27T04:29:28.935Z,297.1
2017-08-27T04:30:29.666Z,276.9
2017-08-27T04:31:30.414Z,297.0
2017-08-27T04:32:31.198Z,320.6
2017-08-27T04:33:32.036Z,303.9
2017-08-27T04:34:33.876Z,309.9
2017-08-27T04:35:34.606Z,313.4
2017-08-27T04:36:35.344Z,304.3
2017-08-27T04:37:36.090Z,306.0
2017-08-27T04:38:36.899Z,300.0
2017-08-27T04:39:37.888Z,301.7
2017-08-27T04:40:38.675Z,293.8
2017-08-27T04:41:39.407Z,284.7
2017-08-27T04:42:40.146Z,274.9
2017-08-27T04:43:40.885Z,294.9
2017-08-27T04:44:42.035Z,289.9
2017-08-27T04:45:42.777Z,272.3
2017-08-27T04:46:43.607Z,280.6
2017-08-27T04:47:44.346Z,265.9
2017-08-27T04:48:45.074Z,303.6
2017-08-27T04:49:46.115Z,264.3
2017-08-27T04:50:46.852Z,294.2
2017-08-27T04:51:47.662Z,285.6
2017-08-27T04:52:48.395Z,289.0
2017-08-27T04:53:49.135Z,275.6
2017-08-27T04:54:50.185Z,319.1
2017-08-27T04:55:50.925Z,289.6
2017-08-27T04:56:51.665Z,303.2
2017-08-27T04:57:52.406Z,306.9
2017-08-27T04:58:53.163Z,287.2
2017-08-27T04:59:54.266Z,289.8
2017-08-27T05:00:55.075Z,309.8
2017-08-27T05:01:55.821Z,299.9
2017-08-27T05:02:56.555Z,315.9
2017-08-27T05:03:57.295Z,315.8
2017-08-27T05:04:58.437Z,296.9
2017-08-27T05:05:59.183Z,293.5
2017-08-27T05:06:59.992Z,304.9
2017-08-27T05:08:00.807Z,346.6
2017-08-27T05:09:01.662Z,323.1
2017-08-27T05:10:02.446Z,309.3
2017-08-27T05:11:03.459Z,305.6
2017-08-27T05:12:04.245Z,320.0
2017-08-27T05:13:04.997Z,308.8
2017-08-27T05:14:05.796Z,284.9
2017-08-27T05:15:06.550Z,308.2
2017-08-27T05:16:07.338Z,279.6
2017-08-27T05:17:08.413Z,285.1
2017-08-27T05:18:09.210Z,272.2
2017-08-27T05:19:09.997Z,278.7
2017-08-27T05:20:10.729Z,283.4
2017-08-27T05:21:11.471Z,264.4
2017-08-27T05:22:12.252Z,284.0
2017-08-27T05:23:13.466Z,289.4
2017-08-27T05:24:14.255Z,275.3
2017-08-27T05:25:14.997Z,269.6
2017-08-27T05:26:15.767Z,265.8
2017-08-27T05:27:16.498Z,242.2
2017-08-27T05:28:17.535Z,256.5
2017-08-27T05:29:18.276Z,260.4
2017-08-27T05:30:19.028Z,272.0
2017-08-27T05:31:19.840Z,254.9
2017-08-27T05:32:20.579Z,238.8
2017-08-27T05:33:21.391Z,250.7
2017-08-27T05:34:22.137Z,246.6
2017-08-27T05:35:23.076Z,215.4
2017-08-27T05:36:23.818Z,223.3
2017-08-27T05:37:24.562Z,236.6
2017-08-27T05:38:25.371Z,224.0
2017-08-27T05:39:26.117Z,230.0
2017-08-27T05:40:26.850Z,242.2
2017-08-27T05:41:28.021Z,252.0
2017-08-27T05:42:28.837Z,251.0
2017-08-27T05:43:29.587Z,231.0
2017-08-27T05:44:30.327Z,224.5
2017-08-27T05:45:31.147Z,237.1
2017-08-27T05:46:32.250Z,238.6
2017-08-27T05:47:33.006Z,231.9
2017-08-27T05:48:33.756Z,208.7
2017-08-27T05:49:34.487Z,220.2
2017-08-27T05:50:35.228Z,216.5
2017-08-27T05:51:36.167Z,199.2
2017-08-27T05:52:36.915Z,194.8
2017-08-27T05:53:37.706Z,165.7
2017-08-27T05:54:38.443Z,167.1
2017-08-27T05:55:39.287Z,160.7
2017-08-27T05:56:40.411Z,173.1
2017-08-27T05:57:41.216Z,142.7
2017-08-27T05:58:41.963Z,151.1
2017-08-27T05:59:42.771Z,141.2
2017-08-27T06:00:43.585Z,137.7
2017-08-27T06:01:44.732Z,124.0
2017-08-27T06:02:45.551Z,108.7
2017-08-27T06:03:47.701Z,112.0
2017-08-27T06:04:48.054Z,97.3
2017-08-27T06:05:48.790Z,91.5
2017-08-27T06:06:49.998Z,94.0
2017-08-27T06:07:50.738Z,85.1
2017-08-27T06:08:51.487Z,88.0
2017-08-27T06:09:52.309Z,110.8
2017-08-27T06:10:53.110Z,119.5
2017-08-27T06:11:54.206Z,122.8
2017-08-27T06:12:54.995Z,105.2
2017-08-27T06:13:55.817Z,106.7
2017-08-27T06:14:56.560Z,104.5
2017-08-27T06:15:57.386Z,98.1
2017-08-27T06:16:58.427Z,97.2
2017-08-27T06:17:59.170Z,92.7
2017-08-27T06:18:59.916Z,99.6
2017-08-27T06:20:00.657Z,95.2
2017-08-27T06:21:01.406Z,94.7
2017-08-27T06:22:02.339Z,91.2
2017-08-27T06:23:03.076Z,92.6
2017-08-27T06:24:03.818Z,87.5
2017-08-27T06:25:04.647Z,88.1
2017-08-27T06:26:05.386Z,84.6
2017-08-27T06:27:06.426Z,76.9
2017-08-27T06:28:07.166Z,75.0
2017-08-27T06:29:07.950Z,74.2
2017-08-27T06:30:08.704Z,76.4
2017-08-27T06:31:09.507Z,77.6
2017-08-27T06:32:10.262Z,71.1
2017-08-27T06:33:11.068Z,73.0
2017-08-27T06:34:11.901Z,70.0
2017-08-27T06:35:13.005Z,70.0
2017-08-27T06:36:13.808Z,74.5
2017-08-27T06:37:14.545Z,66.9
2017-08-27T06:38:15.297Z,66.8
2017-08-27T06:39:16.108Z,71.1
2017-08-27T06:40:16.932Z,73.0
2017-08-27T06:41:18.115Z,74.3
2017-08-27T06:42:18.924Z,67.7
2017-08-27T06:43:19.666Z,73.2
2017-08-27T06:44:20.405Z,60.8
2017-08-27T06:45:21.149Z,64.3
2017-08-27T06:46:22.359Z,65.3
2017-08-27T06:47:23.104Z,64.7
2017-08-27T06:48:23.915Z,70.8
2017-08-27T06:49:24.713Z,65.7
2017-08-27T06:50:25.470Z,68.8
2017-08-27T06:51:26.263Z,64.8
2017-08-27T06:52:27.012Z,62.3
2017-08-27T06:53:28.166Z,65.5
2017-08-27T06:54:28.904Z,57.5
2017-08-27T06:55:29.670Z,56.8
2017-08-27T06:56:30.457Z,55.4
2017-08-27T06:57:31.280Z,58.8
2017-08-27T06:58:32.341Z,54.5
2017-08-27T06:59:33.135Z,50.7
2017-08-27T07:00:33.879Z,54.2
2017-08-27T07:01:34.625Z,48.5
2017-08-27T07:02:35.366Z,46.6
2017-08-27T07:03:36.107Z,52.2
2017-08-27T07:04:36.860Z,46.3
2017-08-27T07:05:38.066Z,46.1
2017-08-27T07:06:38.806Z,41.0
2017-08-27T07:07:39.541Z,42.3
2017-08-27T07:08:40.348Z,39.5
2017-08-27T07:09:41.163Z,37.5
2017-08-27T07:10:42.187Z,38.1
2017-08-27T07:11:42.946Z,37.4
2017-08-27T07:12:43.770Z,35.2
2017-08-27T07:13:44.502Z,32.6
2017-08-27T07:14:45.308Z,36.1
2017-08-27T07:15:46.096Z,34.6
2017-08-27T07:16:46.845Z,34.0
2017-08-27T07:17:47.988Z,29.1
2017-08-27T07:18:48.741Z,29.2
2017-08-27T07:19:49.557Z,24.8
2017-08-27T07:20:50.359Z,29.8
2017-08-27T07:21:51.102Z,26.4
2017-08-27T07:22:52.100Z,27.4
2017-08-27T07:23:52.835Z,30.4
2017-08-27T07:24:53.590Z,30.9
2017-08-27T07:25:54.376Z,24.0
2017-08-27T07:26:55.115Z,23.2
2017-08-27T07:27:56.261Z,23.6
2017-08-27T07:28:57.068Z,27.7
2017-08-27T07:29:57.875Z,26.9
2017-08-27T07:30:58.610Z,25.5
2017-08-27T07:31:59.415Z,34.5
2017-08-27T07:33:00.508Z,30.3
2017-08-27T07:34:01.326Z,26.9
2017-08-27T07:35:02.077Z,29.8
2017-08-27T07:36:03.120Z,27.8
2017-08-27T07:37:03.849Z,29.1
2017-08-27T07:38:04.786Z,20.9
2017-08-27T07:39:05.540Z,22.7
2017-08-27T07:40:06.325Z,27.0
2017-08-27T07:41:07.126Z,30.6
2017-08-27T07:42:07.871Z,27.6
2017-08-27T07:43:08.638Z,27.6
2017-08-27T07:44:09.766Z,31.3
2017-08-27T07:45:10.577Z,24.6
2017-08-27T07:46:11.314Z,19.3
2017-08-27T07:47:12.060Z,22.0
2017-08-27T07:48:12.842Z,23.9
2017-08-27T07:49:13.938Z,21.3
2017-08-27T07:50:14.680Z,23.6
2017-08-27T07:51:15.414Z,21.1
2017-08-27T07:52:16.170Z,20.0
2017-08-27T07:53:16.905Z,18.4
2017-08-27T07:54:17.946Z,20.4
2017-08-27T07:55:18.691Z,25.9
2017-08-27T07:56:19.453Z,24.1
2017-08-27T07:57:20.262Z,25.8
2017-08-27T07:58:21.077Z,20.5
2017-08-27T07:59:21.877Z,19.7
2017-08-27T08:00:22.628Z,18.4
2017-08-27T08:01:23.430Z,18.7
2017-08-27T08:02:24.470Z,21.2
2017-08-27T08:03:25.228Z,17.6
2017-08-27T08:04:26.041Z,18.5
2017-08-27T08:05:26.780Z,20.5
2017-08-27T08:06:27.593Z,19.7
2017-08-27T08:07:28.680Z,15.1
2017-08-27T08:08:29.420Z,15.2
2017-08-27T08:09:30.170Z,11.1
2017-08-27T08:10:30.914Z,14.8
2017-08-27T08:11:31.658Z,12.5
2017-08-27T08:12:32.822Z,11.2
2017-08-27T08:13:33.565Z,16.0
2017-08-27T08:14:34.247Z,12.4
2017-08-27T08:15:34.986Z,9.4
2017-08-27T08:16:35.763Z,8.4
2017-08-27T08:17:36.865Z,9.6
2017-08-27T08:18:37.667Z,8.9
2017-08-27T08:19:38.411Z,9.9
2017-08-27T08:20:39.186Z,17.0
2017-08-27T08:21:39.946Z,14.4
2017-08-27T08:22:41.121Z,15.0
2017-08-27T08:23:41.867Z,11.5
2017-08-27T08:24:42.622Z,9.3
2017-08-27T08:25:43.367Z,12.4
2017-08-27T08:26:44.106Z,10.2
2017-08-27T08:27:45.141Z,15.7
2017-08-27T08:28:45.881Z,11.5
2017-08-27T08:29:46.615Z,14.3
2017-08-27T08:30:47.367Z,14.3
2017-08-27T08:31:48.106Z,12.1
2017-08-27T08:32:48.846Z,8.5
2017-08-27T08:33:49.923Z,9.8
2017-08-27T08:34:50.701Z,9.8
2017-08-27T08:35:51.507Z,13.0
2017-08-27T08:36:52.324Z,8.6
2017-08-27T08:37:53.067Z,8.6
2017-08-27T08:38:54.120Z,10.5
2017-08-27T08:39:54.906Z,8.7
2017-08-27T08:40:55.645Z,9.9
2017-08-27T08:41:56.407Z,10.1
2017-08-27T08:42:57.209Z,9.8
2017-08-27T08:43:58.338Z,8.0
2017-08-27T08:44:59.081Z,7.3
2017-08-27T08:45:59.829Z,7.5
2017-08-27T08:47:00.616Z,15.5
2017-08-27T08:48:01.343Z,8.5
2017-08-27T08:49:02.467Z,6.2
2017-08-27T08:50:03.205Z,6.2
2017-08-27T08:51:03.956Z,6.7
2017-08-27T08:52:04.699Z,6.4
2017-08-27T08:53:05.435Z,6.6
2017-08-27T08:54:06.470Z,5.4
2017-08-27T08:55:07.295Z,5.9
2017-08-27T08:56:08.036Z,5.5
2017-08-27T08:57:08.866Z,6.5
2017-08-27T08:58:09.606Z,8.9
2017-08-27T08:59:10.366Z,7.5
2017-08-27T09:00:11.109Z,5.8
2017-08-27T09:01:11.851Z,6.2
2017-08-27T09:02:12.914Z,7.7
2017-08-27T09:03:13.709Z,5.7
2017-08-27T09:04:14.457Z,5.6
2017-08-27T09:05:15.196Z,6.9
2017-08-27T09:06:15.996Z,5.3
2017-08-27T09:07:16.746Z,6.0
2017-08-27T09:08:17.967Z,6.0
2017-08-27T09:09:18.795Z,9.7
2017-08-27T09:10:19.615Z,5.0
2017-08-27T09:11:20.356Z,5.0
2017-08-27T09:12:21.109Z,7.8
2017-08-27T09:13:22.217Z,5.0
2017-08-27T09:14:22.957Z,4.7
2017-08-27T09:15:23.698Z,6.6
2017-08-27T09:16:24.472Z,6.0
2017-08-27T09:17:25.310Z,4.7
2017-08-27T09:18:26.534Z,5.6
2017-08-27T09:19:27.339Z,6.5
2017-08-27T09:20:28.142Z,6.3
2017-08-27T09:21:28.891Z,5.2
2017-08-27T09:22:29.646Z,5.4
2017-08-27T09:23:30.398Z,5.3
2017-08-27T09:24:31.178Z,8.7
2017-08-27T09:25:32.174Z,6.1
2017-08-27T09:26:32.929Z,6.6
2017-08-27T09:27:33.728Z,5.1
2017-08-27T09:28:35.083Z,4.2
2017-08-27T09:29:35.766Z,4.6
2017-08-27T09:30:36.806Z,5.1
2017-08-27T09:31:37.554Z,5.0
2017-08-27T09:32:38.296Z,6.0
2017-08-27T09:33:39.114Z,5.5
2017-08-27T09:34:39.915Z,7.7
2017-08-27T09:35:40.724Z,4.3
2017-08-27T09:36:41.495Z,5.6
2017-08-27T09:37:42.647Z,4.3
2017-08-27T09:38:43.470Z,5.8
2017-08-27T09:39:44.278Z,5.0
2017-08-27T09:40:45.042Z,4.7
2017-08-27T09:41:45.780Z,5.1
2017-08-27T09:42:46.984Z,6.2
2017-08-27T09:43:47.724Z,6.2
2017-08-27T09:44:48.483Z,7.3
2017-08-27T09:45:49.264Z,6.2
2017-08-27T09:46:50.005Z,5.0
2017-08-27T09:47:50.745Z,6.8
2017-08-27T09:48:51.494Z,4.4
2017-08-27T09:49:52.243Z,6.5
2017-08-27T09:50:53.016Z,6.9
2017-08-27T09:51:53.765Z,5.4
2017-08-27T09:52:54.814Z,5.5
2017-08-27T09:53:55.560Z,4.5
2017-08-27T09:54:56.315Z,7.4
2017-08-27T09:55:57.128Z,4.6
2017-08-27T09:56:57.866Z,7.2
2017-08-27T09:57:58.915Z,5.9
2017-08-27T09:58:59.724Z,4.1
2017-08-27T10:00:00.484Z,4.8
2017-08-27T10:01:01.249Z,4.7
2017-08-27T10:02:01.994Z,3.6
2017-08-27T10:03:02.995Z,3.3
2017-08-27T10:04:03.745Z,5.4
2017-08-27T10:05:04.555Z,3.5
2017-08-27T10:06:05.303Z,3.7
2017-08-27T10:07:06.044Z,3.5
2017-08-27T10:08:06.985Z,3.3
2017-08-27T10:09:07.734Z,3.5
2017-08-27T10:10:08.475Z,6.5
2017-08-27T10:11:09.220Z,2.8
2017-08-27T10:12:10.037Z,3.7
2017-08-27T10:13:11.233Z,4.1
2017-08-27T10:14:11.995Z,4.9
2017-08-27T10:15:12.804Z,5.0
2017-08-27T10:16:13.557Z,3.5
2017-08-27T10:17:14.306Z,5.8
2017-08-27T10:18:15.424Z,6.2
2017-08-27T10:19:16.163Z,3.4
2017-08-27T10:20:16.911Z,2.5
2017-08-27T10:21:17.674Z,5.4
2017-08-27T10:22:18.424Z,5.9
2017-08-27T10:23:19.496Z,7.9
2017-08-27T10:24:20.300Z,6.0
2017-08-27T10:25:21.044Z,3.1
2017-08-27T10:26:21.793Z,3.2
2017-08-27T10:27:22.549Z,2.3
2017-08-27T10:28:23.646Z,4.3
2017-08-27T10:29:24.459Z,3.1
2017-08-27T10:30:25.275Z,2.9
2017-08-27T10:31:26.079Z,3.3
2017-08-27T10:32:26.886Z,3.2
2017-08-27T10:33:27.937Z,3.8
2017-08-27T10:34:28.722Z,5.4
2017-08-27T10:35:29.504Z,5.8
2017-08-27T10:36:30.308Z,4.2
2017-08-27T10:37:31.147Z,3.9
2017-08-27T10:38:31.895Z,8.1
2017-08-27T10:39:33.051Z,4.3
2017-08-27T10:40:33.872Z,5.6
2017-08-27T10:41:34.721Z,2.7
2017-08-27T10:42:35.532Z,2.5
2017-08-27T10:43:36.278Z,5.8
2017-08-27T10:44:37.505Z,6.4
2017-08-27T10:45:38.224Z,3.2
2017-08-27T10:46:38.957Z,3.1
2017-08-27T10:47:39.713Z,5.4
2017-08-27T10:48:40.457Z,3.3
2017-08-27T10:49:41.637Z,3.9
2017-08-27T10:50:42.379Z,2.0
2017-08-27T10:51:43.131Z,1.9
2017-08-27T10:52:43.866Z,2.4
2017-08-27T10:53:44.607Z,3.3
2017-08-27T10:54:45.339Z,3.1
2017-08-27T10:55:46.344Z,6.8
2017-08-27T10:56:47.112Z,3.4
2017-08-27T10:57:47.906Z,3.2
2017-08-27T10:58:48.658Z,4.1
2017-08-27T10:59:49.466Z,3.2
2017-08-27T11:00:50.496Z,2.4
2017-08-27T11:01:51.237Z,2.6
2017-08-27T11:02:52.007Z,3.5
2017-08-27T11:03:52.755Z,5.0
2017-08-27T11:04:53.496Z,3.5
2017-08-27T11:05:54.540Z,3.2
2017-08-27T11:06:55.286Z,3.9
2017-08-27T11:07:56.108Z,5.3
2017-08-27T11:08:56.938Z,2.2
2017-08-27T11:09:57.687Z,2.5
2017-08-27T11:10:58.689Z,3.7
2017-08-27T11:11:59.495Z,2.7
2017-08-27T11:13:00.246Z,4.2
2017-08-27T11:14:01.060Z,2.5
2017-08-27T11:15:01.866Z,2.3
2017-08-27T11:16:03.068Z,2.5
2017-08-27T11:17:03.806Z,2.3
2017-08-27T11:18:04.550Z,1.9
2017-08-27T11:19:05.356Z,2.7
2017-08-27T11:20:06.185Z,3.7
2017-08-27T11:21:07.293Z,3.3
2017-08-27T11:22:08.096Z,1.9
2017-08-27T11:23:09.129Z,4.6
2017-08-27T11:24:09.873Z,1.9
2017-08-27T11:25:10.642Z,3.3
2017-08-27T11:26:11.840Z,2.8
2017-08-27T11:27:12.646Z,2.3
2017-08-27T11:28:13.395Z,2.8
2017-08-27T11:29:14.173Z,6.3
2017-08-27T11:30:15.005Z,5.1
2017-08-27T11:31:15.758Z,2.9
2017-08-27T11:32:16.695Z,2.5
2017-08-27T11:33:17.521Z,1.5
2017-08-27T11:34:19.445Z,3.6
2017-08-27T11:35:21.786Z,2.4
2017-08-27T11:36:23.352Z,3.7
2017-08-27T11:37:25.882Z,2.1
2017-08-27T11:38:26.982Z,2.7
2017-08-27T11:39:28.093Z,2.1
2017-08-27T11:40:30.304Z,3.7
2017-08-27T11:41:31.762Z,1.5
2017-08-27T11:42:32.712Z,3.2
2017-08-27T11:43:34.241Z,3.5
2017-08-27T11:44:34.916Z,2.4
2017-08-27T11:45:36.106Z,3.0
2017-08-27T11:46:36.938Z,7.3
2017-08-27T11:47:37.739Z,2.6
2017-08-27T11:48:38.497Z,1.9
2017-08-27T11:49:39.346Z,3.0
2017-08-27T11:50:40.527Z,4.1
2017-08-27T11:51:41.273Z,2.5
2017-08-27T11:52:42.090Z,3.7
2017-08-27T11:53:42.854Z,2.6
2017-08-27T11:54:43.605Z,2.6
2017-08-27T11:55:44.712Z,1.2
2017-08-27T11:56:45.446Z,1.4
2017-08-27T11:57:46.276Z,1.3
2017-08-27T11:58:46.980Z,4.3
2017-08-27T11:59:47.795Z,3.6
2017-08-27T12:00:48.542Z,1.5
2017-08-27T12:01:49.595Z,1.4
2017-08-27T12:02:50.405Z,2.3
2017-08-27T12:03:51.161Z,3.4
2017-08-27T12:04:51.866Z,3.6
2017-08-27T12:05:52.619Z,4.2
2017-08-27T12:06:53.747Z,1.4
2017-08-27T12:07:54.557Z,2.0
2017-08-27T12:08:55.330Z,4.6
2017-08-27T12:09:56.115Z,10.8
2017-08-27T12:10:56.850Z,4.8
2017-08-27T12:11:57.955Z,4.4
2017-08-27T12:12:58.719Z,18.5
2017-08-27T12:13:59.438Z,38.7
2017-08-27T12:15:00.223Z,14.2
2017-08-27T12:16:01.016Z,9.9
2017-08-27T12:17:02.621Z,3.6
2017-08-27T12:18:03.316Z,3.3
2017-08-27T12:19:04.107Z,3.2
2017-08-27T12:20:04.937Z,2.4
2017-08-27T12:21:05.746Z,2.8
2017-08-27T12:22:07.380Z,1.4
2017-08-27T12:23:08.055Z,2.0
2017-08-27T12:24:08.805Z,2.8
2017-08-27T12:25:09.545Z,2.6
2017-08-27T12:26:10.296Z,1.7
2017-08-27T12:27:11.456Z,2.9
2017-08-27T12:28:12.208Z,2.7
2017-08-27T12:29:12.997Z,3.0
2017-08-27T12:30:13.971Z,1.6
2017-08-27T12:31:14.752Z,2.0
2017-08-27T12:32:15.796Z,1.3
2017-08-27T12:33:16.635Z,1.6
2017-08-27T12:34:17.464Z,1.7
2017-08-27T12:35:18.396Z,1.5
2017-08-27T12:36:19.215Z,1.6
2017-08-27T12:37:20.210Z,3.2
2017-08-27T12:38:21.034Z,1.9
2017-08-27T12:39:21.789Z,1.5
2017-08-27T12:40:22.588Z,1.1
2017-08-27T12:41:23.399Z,2.0
2017-08-27T12:42:24.436Z,1.2
2017-08-27T12:43:25.269Z,3.1
2017-08-27T12:44:26.009Z,1.2
2017-08-27T12:45:26.835Z,3.9
2017-08-27T12:46:27.631Z,1.1
2017-08-27T12:47:28.852Z,1.5
2017-08-27T12:48:29.584Z,1.7
2017-08-27T12:49:30.333Z,3.7
2017-08-27T12:50:31.078Z,1.2
2017-08-27T12:51:31.816Z,1.3
2017-08-27T12:52:32.820Z,3.1
2017-08-27T12:53:33.639Z,1.3
2017-08-27T12:54:34.452Z,3.5
2017-08-27T12:55:35.201Z,3.2
2017-08-27T12:56:36.047Z,4.7
2017-08-27T12:57:37.108Z,3.8
2017-08-27T12:58:37.806Z,4.0
2017-08-27T12:59:38.556Z,2.7
2017-08-27T13:00:39.361Z,2.5
2017-08-27T13:01:40.132Z,1.2
2017-08-27T13:02:40.935Z,1.1
2017-08-27T13:03:41.685Z,1.9
2017-08-27T13:04:42.455Z,1.5
2017-08-27T13:05:43.196Z,1.2
2017-08-27T13:06:44.008Z,1.7
2017-08-27T13:07:45.118Z,1.8
2017-08-27T13:08:45.845Z,1.3
2017-08-27T13:09:46.600Z,1.2
2017-08-27T13:10:47.408Z,1.8
2017-08-27T13:11:48.196Z,1.3
2017-08-27T13:12:49.009Z,1.3
2017-08-27T13:13:50.116Z,1.2
2017-08-27T13:14:50.876Z,3.6
2017-08-27T13:15:51.675Z,3.7
2017-08-27T13:16:52.429Z,2.0
2017-08-27T13:17:53.237Z,4.2
2017-08-27T13:18:54.458Z,1.7
2017-08-27T13:19:55.278Z,1.5
2017-08-27T13:20:56.028Z,2.5
2017-08-27T13:21:56.809Z,3.9
2017-08-27T13:22:57.591Z,3.0
2017-08-27T13:23:58.581Z,3.1
2017-08-27T13:24:59.409Z,5.0
2017-08-27T13:26:00.216Z,1.3
2017-08-27T13:27:00.962Z,2.2
2017-08-27T13:28:01.715Z,3.1
2017-08-27T13:29:02.657Z,1.2